sensor_id;sensor_type;location;lat;lon;timestamp;pressure;altitude;pressure_sealevel;temperature;humidity
50430;BME280;36359;41.556;-8.418;2023-04-26T00:00:52;100299.44;;;16.57;100.00
50430;BME280;36359;41.556;-8.418;2023-04-26T00:03:19;100297.47;;;16.66;100.00
50430;BME280;36359;41.556;-8.418;2023-04-26T00:05:45;100301.88;;;16.67;100.00
50430;BME280;36359;41.556;-8.418;2023-04-26T00:08:11;100299.34;;;16.65;100.00
50430;BME280;36359;41.556;-8.418;2023-04-26T00:10:37;100294.28;;;16.77;100.00
50430;BME280;36359;41.556;-8.418;2023-04-26T00:13:05;100294.34;;;16.84;99.96
50430;BME280;36359;41.556;-8.418;2023-04-26T00:15:30;100295.78;;;16.79;100.00
50430;BME280;36359;41.556;-8.418;2023-04-26T00:17:56;100294.41;;;16.75;100.00
50430;BME280;36359;41.556;-8.418;2023-04-26T00:20:22;100298.53;;;16.79;100.00
50430;BME280;36359;41.556;-8.418;2023-04-26T00:22:47;100294.91;;;16.49;100.00
50430;BME280;36359;41.556;-8.418;2023-04-26T00:28:16;100291.03;;;16.58;100.00
50430;BME280;36359;41.556;-8.418;2023-04-26T00:30:42;100284.31;;;16.61;100.00
50430;BME280;36359;41.556;-8.418;2023-04-26T00:33:12;100282.56;;;16.53;100.00
50430;BME280;36359;41.556;-8.418;2023-04-26T00:35:38;100285.28;;;16.53;100.00
50430;BME280;36359;41.556;-8.418;2023-04-26T00:38:03;100283.56;;;16.67;100.00
50430;BME280;36359;41.556;-8.418;2023-04-26T00:40:29;100281.31;;;16.56;100.00
50430;BME280;36359;41.556;-8.418;2023-04-26T00:42:57;100282.34;;;16.40;100.00
50430;BME280;36359;41.556;-8.418;2023-04-26T00:45:22;100275.06;;;16.18;100.00
50430;BME280;36359;41.556;-8.418;2023-04-26T00:47:49;100278.00;;;16.31;100.00
50430;BME280;36359;41.556;-8.418;2023-04-26T00:50:14;100275.09;;;16.47;100.00
50430;BME280;36359;41.556;-8.418;2023-04-26T00:52:40;100271.59;;;16.53;100.00
50430;BME280;36359;41.556;-8.418;2023-04-26T00:55:07;100272.72;;;16.59;100.00
50430;BME280;36359;41.556;-8.418;2023-04-26T00:57:33;100268.09;;;16.60;100.00
50430;BME280;36359;41.556;-8.418;2023-04-26T00:59:58;100260.06;;;16.58;100.00
50430;BME280;36359;41.556;-8.418;2023-04-26T01:02:24;100256.47;;;16.57;100.00
50430;BME280;36359;41.556;-8.418;2023-04-26T01:04:51;100259.41;;;16.56;100.00
50430;BME280;36359;41.556;-8.418;2023-04-26T01:07:16;100248.47;;;16.56;100.00
50430;BME280;36359;41.556;-8.418;2023-04-26T01:09:43;100247.97;;;16.52;100.00
50430;BME280;36359;41.556;-8.418;2023-04-26T01:12:09;100237.00;;;16.52;100.00
50430;BME280;36359;41.556;-8.418;2023-04-26T01:14:38;100239.09;;;16.50;100.00
50430;BME280;36359;41.556;-8.418;2023-04-26T01:17:04;100231.91;;;16.49;100.00
50430;BME280;36359;41.556;-8.418;2023-04-26T01:19:32;100236.25;;;16.44;100.00
50430;BME280;36359;41.556;-8.418;2023-04-26T01:22:02;100236.53;;;16.49;100.00
50430;BME280;36359;41.556;-8.418;2023-04-26T01:24:28;100230.31;;;16.40;100.00
50430;BME280;36359;41.556;-8.418;2023-04-26T01:26:55;100226.16;;;16.29;100.00
50430;BME280;36359;41.556;-8.418;2023-04-26T01:29:21;100225.25;;;16.22;100.00
50430;BME280;36359;41.556;-8.418;2023-04-26T01:31:48;100215.13;;;16.23;100.00
50430;BME280;36359;41.556;-8.418;2023-04-26T01:34:14;100229.66;;;16.38;100.00
50430;BME280;36359;41.556;-8.418;2023-04-26T01:36:40;100224.66;;;16.42;100.00
50430;BME280;36359;41.556;-8.418;2023-04-26T01:39:06;100223.16;;;16.39;100.00
50430;BME280;36359;41.556;-8.418;2023-04-26T01:41:33;100216.47;;;16.27;100.00
50430;BME280;36359;41.556;-8.418;2023-04-26T01:43:59;100213.34;;;16.15;100.00
50430;BME280;36359;41.556;-8.418;2023-04-26T01:46:25;100214.47;;;16.06;100.00
50430;BME280;36359;41.556;-8.418;2023-04-26T01:48:51;100206.09;;;16.07;100.00
50430;BME280;36359;41.556;-8.418;2023-04-26T01:51:17;100210.72;;;16.07;100.00
50430;BME280;36359;41.556;-8.418;2023-04-26T01:53:42;100210.50;;;15.94;100.00
50430;BME280;36359;41.556;-8.418;2023-04-26T01:56:08;100213.00;;;15.65;100.00
50430;BME280;36359;41.556;-8.418;2023-04-26T01:58:36;100200.97;;;15.75;100.00
50430;BME280;36359;41.556;-8.418;2023-04-26T02:01:07;100195.59;;;15.96;100.00
50430;BME280;36359;41.556;-8.418;2023-04-26T02:03:33;100190.78;;;15.98;100.00
50430;BME280;36359;41.556;-8.418;2023-04-26T02:05:59;100188.81;;;15.92;100.00
50430;BME280;36359;41.556;-8.418;2023-04-26T02:08:25;100180.22;;;15.95;100.00
50430;BME280;36359;41.556;-8.418;2023-04-26T02:10:51;100181.63;;;16.06;100.00
50430;BME280;36359;41.556;-8.418;2023-04-26T02:13:16;100170.59;;;15.99;100.00
50430;BME280;36359;41.556;-8.418;2023-04-26T02:15:48;100177.41;;;16.03;100.00
50430;BME280;36359;41.556;-8.418;2023-04-26T02:18:14;100170.69;;;16.06;100.00
50430;BME280;36359;41.556;-8.418;2023-04-26T02:20:41;100159.00;;;15.97;100.00
50430;BME280;36359;41.556;-8.418;2023-04-26T02:26:19;100158.63;;;16.00;100.00
50430;BME280;36359;41.556;-8.418;2023-04-26T02:28:45;100156.06;;;15.84;100.00
50430;BME280;36359;41.556;-8.418;2023-04-26T02:31:12;100154.09;;;15.78;100.00
50430;BME280;36359;41.556;-8.418;2023-04-26T02:33:38;100147.94;;;15.76;100.00
50430;BME280;36359;41.556;-8.418;2023-04-26T02:36:05;100140.69;;;15.68;100.00
50430;BME280;36359;41.556;-8.418;2023-04-26T02:38:34;100136.25;;;15.82;100.00
50430;BME280;36359;41.556;-8.418;2023-04-26T02:41:03;100131.16;;;15.79;100.00
50430;BME280;36359;41.556;-8.418;2023-04-26T02:43:29;100127.41;;;15.80;100.00
50430;BME280;36359;41.556;-8.418;2023-04-26T02:45:55;100130.50;;;15.77;100.00
50430;BME280;36359;41.556;-8.418;2023-04-26T02:48:24;100125.97;;;15.69;100.00
50430;BME280;36359;41.556;-8.418;2023-04-26T02:50:50;100125.84;;;15.62;100.00
50430;BME280;36359;41.556;-8.418;2023-04-26T02:53:16;100124.13;;;15.61;100.00
50430;BME280;36359;41.556;-8.418;2023-04-26T02:55:42;100124.00;;;15.78;100.00
50430;BME280;36359;41.556;-8.418;2023-04-26T02:58:08;100126.44;;;15.73;100.00
50430;BME280;36359;41.556;-8.418;2023-04-26T03:00:34;100132.44;;;15.53;100.00
50430;BME280;36359;41.556;-8.418;2023-04-26T03:03:00;100128.38;;;15.49;100.00
50430;BME280;36359;41.556;-8.418;2023-04-26T03:05:27;100127.34;;;15.50;100.00
50430;BME280;36359;41.556;-8.418;2023-04-26T03:07:53;100133.91;;;15.41;100.00
50430;BME280;36359;41.556;-8.418;2023-04-26T03:10:19;100128.28;;;15.42;100.00
50430;BME280;36359;41.556;-8.418;2023-04-26T03:12:44;100139.00;;;15.44;100.00
50430;BME280;36359;41.556;-8.418;2023-04-26T03:15:10;100131.47;;;15.31;100.00
50430;BME280;36359;41.556;-8.418;2023-04-26T03:17:38;100136.16;;;14.99;100.00
50430;BME280;36359;41.556;-8.418;2023-04-26T03:20:04;100133.94;;;14.80;100.00
50430;BME280;36359;41.556;-8.418;2023-04-26T03:22:33;100141.31;;;14.80;100.00
50430;BME280;36359;41.556;-8.418;2023-04-26T03:25:00;100136.06;;;14.93;100.00
50430;BME280;36359;41.556;-8.418;2023-04-26T03:27:27;100142.59;;;15.30;100.00
50430;BME280;36359;41.556;-8.418;2023-04-26T03:29:54;100130.25;;;15.34;100.00
50430;BME280;36359;41.556;-8.418;2023-04-26T03:32:23;100122.41;;;15.31;100.00
50430;BME280;36359;41.556;-8.418;2023-04-26T03:34:49;100117.31;;;15.28;100.00
50430;BME280;36359;41.556;-8.418;2023-04-26T03:37:15;100115.63;;;15.27;100.00
50430;BME280;36359;41.556;-8.418;2023-04-26T03:39:43;100107.88;;;15.15;100.00
50430;BME280;36359;41.556;-8.418;2023-04-26T03:42:09;100104.84;;;15.10;100.00
50430;BME280;36359;41.556;-8.418;2023-04-26T03:44:37;100101.19;;;15.18;100.00
50430;BME280;36359;41.556;-8.418;2023-04-26T03:47:03;100103.44;;;15.29;100.00
50430;BME280;36359;41.556;-8.418;2023-04-26T03:49:30;100107.44;;;15.27;100.00
50430;BME280;36359;41.556;-8.418;2023-04-26T03:51:56;100106.28;;;15.21;100.00
50430;BME280;36359;41.556;-8.418;2023-04-26T03:54:22;100121.13;;;14.81;100.00
50430;BME280;36359;41.556;-8.418;2023-04-26T03:56:48;100120.88;;;14.90;100.00
50430;BME280;36359;41.556;-8.418;2023-04-26T03:59:14;100119.72;;;14.85;100.00
50430;BME280;36359;41.556;-8.418;2023-04-26T04:01:40;100124.41;;;14.53;100.00
50430;BME280;36359;41.556;-8.418;2023-04-26T04:04:06;100115.47;;;14.82;100.00
50430;BME280;36359;41.556;-8.418;2023-04-26T04:06:32;100122.72;;;14.98;100.00
50430;BME280;36359;41.556;-8.418;2023-04-26T04:08:59;100125.38;;;15.06;100.00
50430;BME280;36359;41.556;-8.418;2023-04-26T04:11:25;100123.28;;;15.08;100.00
50430;BME280;36359;41.556;-8.418;2023-04-26T04:13:51;100127.94;;;14.85;100.00
50430;BME280;36359;41.556;-8.418;2023-04-26T04:16:17;100121.59;;;15.07;100.00
50430;BME280;36359;41.556;-8.418;2023-04-26T04:18:43;100112.66;;;15.13;100.00
50430;BME280;36359;41.556;-8.418;2023-04-26T04:21:09;100108.25;;;15.12;100.00
50430;BME280;36359;41.556;-8.418;2023-04-26T04:23:35;100112.72;;;15.05;100.00
50430;BME280;36359;41.556;-8.418;2023-04-26T04:26:05;100110.47;;;15.09;100.00
50430;BME280;36359;41.556;-8.418;2023-04-26T04:28:31;100112.94;;;15.04;100.00
50430;BME280;36359;41.556;-8.418;2023-04-26T04:30:58;100111.72;;;15.06;100.00
50430;BME280;36359;41.556;-8.418;2023-04-26T04:33:25;100112.72;;;15.05;100.00
50430;BME280;36359;41.556;-8.418;2023-04-26T04:35:55;100105.50;;;15.12;100.00
50430;BME280;36359;41.556;-8.418;2023-04-26T04:38:20;100106.06;;;15.08;100.00
50430;BME280;36359;41.556;-8.418;2023-04-26T04:40:49;100105.97;;;15.16;100.00
50430;BME280;36359;41.556;-8.418;2023-04-26T04:43:16;100103.59;;;14.98;100.00
50430;BME280;36359;41.556;-8.418;2023-04-26T04:45:42;100106.50;;;14.96;100.00
50430;BME280;36359;41.556;-8.418;2023-04-26T04:48:09;100099.50;;;14.94;100.00
50430;BME280;36359;41.556;-8.418;2023-04-26T04:50:39;100104.69;;;14.89;100.00
50430;BME280;36359;41.556;-8.418;2023-04-26T04:53:07;100108.38;;;14.96;100.00
50430;BME280;36359;41.556;-8.418;2023-04-26T04:55:35;100113.09;;;15.02;100.00
50430;BME280;36359;41.556;-8.418;2023-04-26T04:58:03;100109.13;;;14.90;100.00
50430;BME280;36359;41.556;-8.418;2023-04-26T05:00:30;100110.44;;;14.94;100.00
50430;BME280;36359;41.556;-8.418;2023-04-26T05:03:18;100107.44;;;14.89;100.00
50430;BME280;36359;41.556;-8.418;2023-04-26T05:05:44;100114.34;;;14.76;100.00
50430;BME280;36359;41.556;-8.418;2023-04-26T05:08:10;100106.06;;;14.62;100.00
50430;BME280;36359;41.556;-8.418;2023-04-26T05:10:36;100112.50;;;14.38;100.00
50430;BME280;36359;41.556;-8.418;2023-04-26T05:13:02;100102.50;;;14.30;100.00
50430;BME280;36359;41.556;-8.418;2023-04-26T05:15:31;100102.56;;;14.53;100.00
50430;BME280;36359;41.556;-8.418;2023-04-26T05:17:57;100094.66;;;14.58;100.00
50430;BME280;36359;41.556;-8.418;2023-04-26T05:20:24;100102.38;;;14.54;100.00
50430;BME280;36359;41.556;-8.418;2023-04-26T05:22:50;100099.50;;;14.48;100.00
50430;BME280;36359;41.556;-8.418;2023-04-26T05:25:16;100110.28;;;14.41;100.00
50430;BME280;36359;41.556;-8.418;2023-04-26T05:27:44;100108.22;;;14.43;100.00
50430;BME280;36359;41.556;-8.418;2023-04-26T05:30:45;100104.31;;;14.38;100.00
50430;BME280;36359;41.556;-8.418;2023-04-26T05:33:19;100116.44;;;14.35;100.00
50430;BME280;36359;41.556;-8.418;2023-04-26T05:35:56;100113.50;;;14.53;100.00
50430;BME280;36359;41.556;-8.418;2023-04-26T05:38:23;100122.22;;;14.71;100.00
50430;BME280;36359;41.556;-8.418;2023-04-26T05:40:49;100130.22;;;14.96;100.00
50430;BME280;36359;41.556;-8.418;2023-04-26T05:43:16;100134.75;;;14.89;100.00
50430;BME280;36359;41.556;-8.418;2023-04-26T05:45:54;100138.47;;;14.88;100.00
50430;BME280;36359;41.556;-8.418;2023-04-26T05:48:22;100138.97;;;14.68;100.00
50430;BME280;36359;41.556;-8.418;2023-04-26T05:50:49;100146.53;;;14.58;100.00
50430;BME280;36359;41.556;-8.418;2023-04-26T05:53:15;100144.38;;;14.53;100.00
50430;BME280;36359;41.556;-8.418;2023-04-26T05:55:41;100142.50;;;14.54;100.00
50430;BME280;36359;41.556;-8.418;2023-04-26T05:58:07;100148.63;;;14.56;100.00
50430;BME280;36359;41.556;-8.418;2023-04-26T06:00:33;100144.53;;;14.52;100.00
50430;BME280;36359;41.556;-8.418;2023-04-26T06:03:00;100146.75;;;14.57;100.00
50430;BME280;36359;41.556;-8.418;2023-04-26T06:05:26;100136.78;;;14.64;100.00
50430;BME280;36359;41.556;-8.418;2023-04-26T06:07:52;100144.69;;;14.82;100.00
50430;BME280;36359;41.556;-8.418;2023-04-26T06:10:18;100146.38;;;15.06;100.00
50430;BME280;36359;41.556;-8.418;2023-04-26T06:12:44;100145.41;;;15.21;100.00
50430;BME280;36359;41.556;-8.418;2023-04-26T06:15:11;100144.19;;;15.24;100.00
50430;BME280;36359;41.556;-8.418;2023-04-26T06:17:38;100149.44;;;15.26;100.00
50430;BME280;36359;41.556;-8.418;2023-04-26T06:20:05;100138.31;;;15.12;100.00
50430;BME280;36359;41.556;-8.418;2023-04-26T06:31:41;100136.47;;;14.82;100.00
50430;BME280;36359;41.556;-8.418;2023-04-26T06:34:07;100136.84;;;14.79;100.00
50430;BME280;36359;41.556;-8.418;2023-04-26T06:36:33;100140.00;;;14.67;100.00
50430;BME280;36359;41.556;-8.418;2023-04-26T06:38:59;100137.16;;;14.84;100.00
50430;BME280;36359;41.556;-8.418;2023-04-26T06:41:25;100126.22;;;14.84;100.00
50430;BME280;36359;41.556;-8.418;2023-04-26T06:43:52;100125.56;;;14.82;100.00
50430;BME280;36359;41.556;-8.418;2023-04-26T06:46:19;100129.75;;;14.69;100.00
50430;BME280;36359;41.556;-8.418;2023-04-26T06:48:54;100140.47;;;14.94;100.00
50430;BME280;36359;41.556;-8.418;2023-04-26T06:51:21;100142.09;;;15.26;100.00
50430;BME280;36359;41.556;-8.418;2023-04-26T06:53:47;100137.00;;;15.76;100.00
50430;BME280;36359;41.556;-8.418;2023-04-26T06:56:13;100135.44;;;15.58;100.00
50430;BME280;36359;41.556;-8.418;2023-04-26T06:58:47;100130.47;;;15.47;100.00
50430;BME280;36359;41.556;-8.418;2023-04-26T07:01:22;100137.16;;;15.59;100.00
50430;BME280;36359;41.556;-8.418;2023-04-26T07:03:47;100138.47;;;15.63;100.00
50430;BME280;36359;41.556;-8.418;2023-04-26T07:06:13;100140.59;;;15.76;100.00
50430;BME280;36359;41.556;-8.418;2023-04-26T07:08:39;100127.94;;;15.90;100.00
50430;BME280;36359;41.556;-8.418;2023-04-26T07:11:11;100135.72;;;15.49;100.00
50430;BME280;36359;41.556;-8.418;2023-04-26T07:13:37;100141.41;;;15.62;100.00
50430;BME280;36359;41.556;-8.418;2023-04-26T07:16:03;100134.53;;;15.66;100.00
50430;BME280;36359;41.556;-8.418;2023-04-26T07:18:29;100136.56;;;15.49;100.00
50430;BME280;36359;41.556;-8.418;2023-04-26T07:20:56;100137.81;;;15.61;100.00
50430;BME280;36359;41.556;-8.418;2023-04-26T07:23:22;100137.16;;;15.59;100.00
50430;BME280;36359;41.556;-8.418;2023-04-26T07:25:51;100148.31;;;15.73;100.00
50430;BME280;36359;41.556;-8.418;2023-04-26T07:28:18;100142.84;;;15.73;100.00
50430;BME280;36359;41.556;-8.418;2023-04-26T07:30:44;100150.53;;;15.54;100.00
50430;BME280;36359;41.556;-8.418;2023-04-26T07:33:10;100152.81;;;15.51;100.00
50430;BME280;36359;41.556;-8.418;2023-04-26T07:35:39;100147.00;;;15.69;100.00
50430;BME280;36359;41.556;-8.418;2023-04-26T07:38:05;100150.97;;;15.81;100.00
50430;BME280;36359;41.556;-8.418;2023-04-26T07:40:32;100143.94;;;16.38;100.00
50430;BME280;36359;41.556;-8.418;2023-04-26T07:42:57;100146.44;;;17.12;100.00
50430;BME280;36359;41.556;-8.418;2023-04-26T07:45:24;100147.47;;;16.53;100.00
50430;BME280;36359;41.556;-8.418;2023-04-26T07:47:50;100146.22;;;16.19;100.00
50430;BME280;36359;41.556;-8.418;2023-04-26T07:50:19;100145.94;;;16.29;100.00
50430;BME280;36359;41.556;-8.418;2023-04-26T07:52:46;100136.88;;;16.28;100.00
50430;BME280;36359;41.556;-8.418;2023-04-26T07:55:12;100143.91;;;16.01;100.00
50430;BME280;36359;41.556;-8.418;2023-04-26T07:57:38;100136.75;;;15.71;100.00
50430;BME280;36359;41.556;-8.418;2023-04-26T08:00:05;100135.81;;;16.44;100.00
50430;BME280;36359;41.556;-8.418;2023-04-26T08:02:38;100147.59;;;17.02;100.00
50430;BME280;36359;41.556;-8.418;2023-04-26T08:05:03;100149.22;;;17.40;100.00
50430;BME280;36359;41.556;-8.418;2023-04-26T08:07:30;100157.44;;;17.68;100.00
50430;BME280;36359;41.556;-8.418;2023-04-26T08:09:56;100160.59;;;16.21;100.00
50430;BME280;36359;41.556;-8.418;2023-04-26T08:12:22;100153.34;;;16.50;100.00
50430;BME280;36359;41.556;-8.418;2023-04-26T08:14:48;100159.38;;;16.09;100.00
50430;BME280;36359;41.556;-8.418;2023-04-26T08:17:15;100155.72;;;16.38;100.00
50430;BME280;36359;41.556;-8.418;2023-04-26T08:19:41;100169.28;;;17.19;100.00
50430;BME280;36359;41.556;-8.418;2023-04-26T08:22:10;100162.25;;;17.10;100.00
50430;BME280;36359;41.556;-8.418;2023-04-26T08:24:46;100158.72;;;16.94;100.00
50430;BME280;36359;41.556;-8.418;2023-04-26T08:27:12;100164.00;;;16.60;100.00
50430;BME280;36359;41.556;-8.418;2023-04-26T08:29:39;100159.97;;;16.92;100.00
50430;BME280;36359;41.556;-8.418;2023-04-26T08:32:05;100161.84;;;17.13;100.00
50430;BME280;36359;41.556;-8.418;2023-04-26T08:34:31;100172.28;;;17.24;100.00
50430;BME280;36359;41.556;-8.418;2023-04-26T08:36:57;100176.84;;;17.38;100.00
50430;BME280;36359;41.556;-8.418;2023-04-26T08:39:23;100171.00;;;17.48;100.00
50430;BME280;36359;41.556;-8.418;2023-04-26T08:41:53;100175.88;;;17.53;100.00
50430;BME280;36359;41.556;-8.418;2023-04-26T08:44:22;100170.38;;;17.74;100.00
50430;BME280;36359;41.556;-8.418;2023-04-26T08:49:46;100173.25;;;17.94;99.30
50430;BME280;36359;41.556;-8.418;2023-04-26T08:52:18;100175.34;;;17.85;99.70
50430;BME280;36359;41.556;-8.418;2023-04-26T08:54:50;100175.41;;;17.99;98.52
50430;BME280;36359;41.556;-8.418;2023-04-26T08:57:17;100184.03;;;18.30;96.14
50430;BME280;36359;41.556;-8.418;2023-04-26T08:59:44;100180.25;;;17.97;98.40
50430;BME280;36359;41.556;-8.418;2023-04-26T09:02:13;100178.97;;;17.92;99.23
50430;BME280;36359;41.556;-8.418;2023-04-26T09:04:42;100188.31;;;18.05;98.20
50430;BME280;36359;41.556;-8.418;2023-04-26T09:07:18;100178.13;;;18.33;96.07
50430;BME280;36359;41.556;-8.418;2023-04-26T09:09:47;100172.25;;;18.50;95.05
50430;BME280;36359;41.556;-8.418;2023-04-26T09:12:17;100180.56;;;18.63;94.33
50430;BME280;36359;41.556;-8.418;2023-04-26T09:14:44;100180.22;;;18.79;93.38
50430;BME280;36359;41.556;-8.418;2023-04-26T09:19:53;100172.16;;;18.71;93.36
50430;BME280;36359;41.556;-8.418;2023-04-26T09:24:57;100174.34;;;18.82;92.65
50430;BME280;36359;41.556;-8.418;2023-04-26T09:27:35;100168.03;;;19.15;89.46
50430;BME280;36359;41.556;-8.418;2023-04-26T09:35:32;100162.13;;;19.18;89.83
50430;BME280;36359;41.556;-8.418;2023-04-26T09:38:03;100166.56;;;19.33;90.07
50430;BME280;36359;41.556;-8.418;2023-04-26T09:40:52;100173.13;;;19.45;87.76
50430;BME280;36359;41.556;-8.418;2023-04-26T09:43:21;100172.91;;;19.40;89.42
50430;BME280;36359;41.556;-8.418;2023-04-26T09:48:29;100178.63;;;19.51;88.62
50430;BME280;36359;41.556;-8.418;2023-04-26T09:50:58;100174.19;;;19.70;87.89
50430;BME280;36359;41.556;-8.418;2023-04-26T09:53:41;100171.44;;;19.50;89.91
50430;BME280;36359;41.556;-8.418;2023-04-26T09:56:12;100163.16;;;19.64;88.31
50430;BME280;36359;41.556;-8.418;2023-04-26T10:01:11;100165.50;;;19.47;90.33
50430;BME280;36359;41.556;-8.418;2023-04-26T10:03:39;100167.81;;;19.63;89.70
50430;BME280;36359;41.556;-8.418;2023-04-26T10:06:07;100158.31;;;19.86;89.84
50430;BME280;36359;41.556;-8.418;2023-04-26T10:08:37;100154.03;;;20.03;88.81
50430;BME280;36359;41.556;-8.418;2023-04-26T10:11:04;100148.69;;;20.15;86.93
50430;BME280;36359;41.556;-8.418;2023-04-26T10:13:32;100149.97;;;20.12;86.55
50430;BME280;36359;41.556;-8.418;2023-04-26T10:16:02;100146.97;;;20.20;87.07
50430;BME280;36359;41.556;-8.418;2023-04-26T10:18:32;100149.84;;;19.81;89.36
50430;BME280;36359;41.556;-8.418;2023-04-26T10:21:03;100159.13;;;19.93;88.16
50430;BME280;36359;41.556;-8.418;2023-04-26T10:23:31;100163.78;;;19.99;87.80
50430;BME280;36359;41.556;-8.418;2023-04-26T10:25:58;100155.72;;;20.04;86.83
50430;BME280;36359;41.556;-8.418;2023-04-26T10:31:05;100156.97;;;20.08;88.39
50430;BME280;36359;41.556;-8.418;2023-04-26T10:33:32;100156.59;;;19.98;87.17
50430;BME280;36359;41.556;-8.418;2023-04-26T10:38:25;100145.09;;;20.08;86.95
50430;BME280;36359;41.556;-8.418;2023-04-26T10:40:51;100137.84;;;20.20;87.00
50430;BME280;36359;41.556;-8.418;2023-04-26T10:45:45;100133.94;;;20.41;86.69
50430;BME280;36359;41.556;-8.418;2023-04-26T10:58:49;100139.88;;;21.21;82.39
50430;BME280;36359;41.556;-8.418;2023-04-26T11:01:41;100141.16;;;21.19;81.95
50430;BME280;36359;41.556;-8.418;2023-04-26T11:04:11;100133.72;;;20.87;82.79
50430;BME280;36359;41.556;-8.418;2023-04-26T11:06:50;100137.50;;;20.93;82.25
50430;BME280;36359;41.556;-8.418;2023-04-26T11:09:38;100136.53;;;21.13;81.64
50430;BME280;36359;41.556;-8.418;2023-04-26T11:12:14;100133.78;;;20.81;82.27
50430;BME280;36359;41.556;-8.418;2023-04-26T11:14:47;100136.28;;;21.21;82.69
50430;BME280;36359;41.556;-8.418;2023-04-26T11:17:12;100135.00;;;20.85;84.50
50430;BME280;36359;41.556;-8.418;2023-04-26T11:19:40;100141.66;;;21.09;83.12
50430;BME280;36359;41.556;-8.418;2023-04-26T11:22:06;100135.84;;;20.92;84.02
50430;BME280;36359;41.556;-8.418;2023-04-26T11:24:37;100135.41;;;21.20;83.44
50430;BME280;36359;41.556;-8.418;2023-04-26T11:27:10;100128.91;;;21.08;83.57
50430;BME280;36359;41.556;-8.418;2023-04-26T11:29:37;100133.66;;;21.26;85.66
50430;BME280;36359;41.556;-8.418;2023-04-26T11:32:03;100132.56;;;21.33;82.81
50430;BME280;36359;41.556;-8.418;2023-04-26T11:34:37;100136.41;;;21.58;82.68
50430;BME280;36359;41.556;-8.418;2023-04-26T11:37:06;100130.25;;;21.55;80.94
50430;BME280;36359;41.556;-8.418;2023-04-26T11:39:33;100126.00;;;21.78;83.84
50430;BME280;36359;41.556;-8.418;2023-04-26T11:42:06;100114.19;;;21.89;79.47
50430;BME280;36359;41.556;-8.418;2023-04-26T11:44:33;100121.16;;;21.73;77.50
50430;BME280;36359;41.556;-8.418;2023-04-26T11:47:04;100123.50;;;21.95;79.23
50430;BME280;36359;41.556;-8.418;2023-04-26T11:49:35;100125.25;;;22.26;78.37
50430;BME280;36359;41.556;-8.418;2023-04-26T11:52:03;100125.41;;;22.31;75.96
50430;BME280;36359;41.556;-8.418;2023-04-26T11:54:35;100129.75;;;22.27;77.51
50430;BME280;36359;41.556;-8.418;2023-04-26T11:57:15;100127.16;;;22.44;75.72
50430;BME280;36359;41.556;-8.418;2023-04-26T11:59:42;100113.59;;;22.42;76.52
50430;BME280;36359;41.556;-8.418;2023-04-26T12:02:08;100112.88;;;22.47;75.09
50430;BME280;36359;41.556;-8.418;2023-04-26T12:04:36;100109.94;;;22.60;75.62
50430;BME280;36359;41.556;-8.418;2023-04-26T12:07:05;100113.28;;;22.32;76.86
50430;BME280;36359;41.556;-8.418;2023-04-26T12:09:31;100115.25;;;22.43;75.35
50430;BME280;36359;41.556;-8.418;2023-04-26T12:11:58;100107.84;;;22.74;74.97
50430;BME280;36359;41.556;-8.418;2023-04-26T12:14:41;100108.53;;;23.00;72.84
50430;BME280;36359;41.556;-8.418;2023-04-26T12:17:07;100110.16;;;22.89;74.05
50430;BME280;36359;41.556;-8.418;2023-04-26T12:19:39;100103.50;;;22.78;73.00
50430;BME280;36359;41.556;-8.418;2023-04-26T12:22:06;100107.78;;;22.62;74.25
50430;BME280;36359;41.556;-8.418;2023-04-26T12:24:32;100105.06;;;22.74;75.25
50430;BME280;36359;41.556;-8.418;2023-04-26T12:27:02;100088.94;;;22.71;76.93
50430;BME280;36359;41.556;-8.418;2023-04-26T12:29:29;100106.41;;;22.83;75.29
50430;BME280;36359;41.556;-8.418;2023-04-26T12:31:57;100103.50;;;22.78;75.52
50430;BME280;36359;41.556;-8.418;2023-04-26T12:34:23;100092.84;;;22.94;74.28
50430;BME280;36359;41.556;-8.418;2023-04-26T12:36:49;100081.34;;;22.97;74.27
50430;BME280;36359;41.556;-8.418;2023-04-26T12:39:14;100073.91;;;23.09;74.97
50430;BME280;36359;41.556;-8.418;2023-04-26T12:41:41;100081.75;;;23.24;73.66
50430;BME280;36359;41.556;-8.418;2023-04-26T12:44:08;100085.47;;;23.29;74.83
50430;BME280;36359;41.556;-8.418;2023-04-26T12:46:35;100075.00;;;23.43;74.56
50430;BME280;36359;41.556;-8.418;2023-04-26T12:49:01;100075.00;;;23.43;71.39
50430;BME280;36359;41.556;-8.418;2023-04-26T12:51:27;100074.66;;;23.51;71.56
50430;BME280;36359;41.556;-8.418;2023-04-26T12:53:53;100069.84;;;23.70;72.00
50430;BME280;36359;41.556;-8.418;2023-04-26T12:56:18;100068.28;;;23.63;73.15
50430;BME280;36359;41.556;-8.418;2023-04-26T12:58:44;100066.94;;;23.18;71.74
50430;BME280;36359;41.556;-8.418;2023-04-26T13:01:12;100062.88;;;23.32;71.84
50430;BME280;36359;41.556;-8.418;2023-04-26T13:03:39;100065.38;;;23.34;71.96
50430;BME280;36359;41.556;-8.418;2023-04-26T13:06:05;100063.56;;;23.16;72.80
50430;BME280;36359;41.556;-8.418;2023-04-26T13:08:31;100059.84;;;23.10;72.67
50430;BME280;36359;41.556;-8.418;2023-04-26T13:10:57;100060.47;;;22.94;70.40
50430;BME280;36359;41.556;-8.418;2023-04-26T13:13:23;100059.00;;;23.33;70.51
50430;BME280;36359;41.556;-8.418;2023-04-26T13:15:50;100062.25;;;23.30;70.18
50430;BME280;36359;41.556;-8.418;2023-04-26T13:18:16;100059.97;;;23.74;69.54
50430;BME280;36359;41.556;-8.418;2023-04-26T13:20:45;100053.34;;;23.75;67.46
50430;BME280;36359;41.556;-8.418;2023-04-26T13:23:12;100059.72;;;23.88;68.16
50430;BME280;36359;41.556;-8.418;2023-04-26T13:25:38;100061.16;;;23.55;69.38
50430;BME280;36359;41.556;-8.418;2023-04-26T13:28:03;100053.69;;;23.67;70.04